Aérodrome :
LOGIN :

S'inscrire | Disclaimer

   EN    FR    IT 

 










Légende :    VFR   VFR Marginal   IFR   IFR Intensif   IFR Très Intensif
Visi : 
Plafond : 
>= 8 km
>= 3000ft
5 à 8 km
1000 à 3000 ft
1500m à 5 km
500 à 1000 ft
800 à 1500m
200 à 500 ft
< 800m
< 200 ft
Symboles :   Orages  Brouillard  Fortes neiges  Fortes précipitations  Vent > 20 kt
SIGMETs :   Divers  Orages  Givrage  Turbulence  Onde Orograph.  Cendres Volcan.






- Altitude de l'aérodrome : 1470 ft
- Code IATA : KLU


LOWK - Klagenfurt

DERNIER METAR :
  • 301620Z 10003KT 060V160 0450 R10/0400N R28/0500N FZFG VV001 M02/M03 Q1025 R10L/19//95 TEMPO 0600 BKN003

METARs EXPIRÉS :
  • 301550Z 14003KT 100V180 0350 R10/0350N R28/0450U FZFG VV001 M02/M02 Q1025 R10L/19//95 TEMPO 0600 BKN003
  • 301520Z 12003KT 080V150 0350 R10/0350N R28/0325N FZFG FEW000 BKN001 M02/M03 Q1025 R10L/19//95 TEMPO 0600 BKN003
  • 301450Z VRB02KT 0300 R10/0450D R28/0350N FZFG VV002 M02/M02 Q1025 R10L/19//95 TEMPO 0600 BKN003
  • 301420Z 14004KT 110V170 5000 BR FEW002 M00/M01 Q1025 R10L/19//95 TEMPO 3000
  • 301350Z 10003KT 060V130 6000 FEW002 00/M01 Q1025 R10L/19//95 TEMPO 3000

TAF AMD TAF LOWK
Valide du 30 à 14h jusqu'au 01 à 12h UTC


301440Z 3014/0112 VRB03KT 4000 SCT004 BKN007 TXM01/3014Z TNM04/0106Z
TEMPO 3014/3018 0300 FZBCFG BKN001
TEMPO 3018/0108 1200 FZBCFG BKN002



MET'MAP, la Météo Aéronautique d'un coup d'oeil ! - Copyright ORBIFLY Décembre 2007 - Disclaimer

ORBIFLY MET'MAP TEAM :

Programmation & Développement : Alexandra Zaïnal
Sur une idée originale de : Baudouin d'Aumeries
Assistance à la programmation : Marc-Olivier Méhu
Soutien technique & logistique : Manuel Goepfert

Contact : metmap@orbifly.com




SOURCES & CREDITS :

   NOAA